首页
METAR-TAF:

METAR-TAF

机场 :

阿克拉维克, 西北特區, 加拿大

纬度: 68-13N, 经度: 135-00W, 海拔: 7米

当前天气观测

该预报发布于1小时和4分钟前的19:00 UTC
风速15节,风向南转南东,有时为22节阵风
温度 -12°C
湿度 47%
气压 1029 hPa
能見度: 24.1公里
天空无云

METAR: CYKD 021900Z 16015G22KT 15SM SKC M12/M21 A3040 RMK SLP298

时间: 14:04 (20:04 UTC)


TAF: 丢失

超过4000个机场的气象观测和天气预报(METAR&TAF报告)。

可查询的气象台以黄色和红色小点在地图上表示。

将鼠标移到小点上方,可查看气象台名称。

然后点击查看天气观测和预报。

如需切换地图:点击带黑十字的绿色按钮放大地图;点击带横线的绿色按钮缩小地图;或者点击绿色箭头查看邻近地区的地图。


METAR-TAF: